Everton, Missouri
Current Conditions -  °F | °C
As of 4:52 PM on Thursday 20 Nov 2014 (Local Time) from KSGF Reporting Station
Clear Clear  
Wind Chill: 40°   Ceiling: Unl
Heat Index: 45°   Visibility: 10mi
Dew Point: 23°   Wind: 10mph
Humidity: 42%   Direction: 40°NE
Pressure: 30.13"   Gusts: NA
Location:  37.34°N, 93.7°W
Report Text: KSGF 202252Z 04009KT 10SM CLR 07/M05 A3013 RMK AO2 SLP212 T00721050
Loading
Personal Weather Stations






























Interactive Weather Map New forecast layout! Learn more

10-Day Weather Forecast

Advertisements
Track Severe Weather on mobile